Time;durP1;ratioP1;P1;durP2;ratioP2;P2;SDS_P1;SDS_P2;PMS_P1;PMS_P2;Temp;Humidity;BMP_temperature;BMP_pressure;BME280_temperature;BME280_humidity;BME280_pressure;Samples;Min_cycle;Max_cycle;Signal;HPM_P1;HPM_P2
2021/11/23 00:00:49;;;;;;;7.22;3.38;;;;;;;18.27;35.65;102459.69;4224322;28;20040;-61
2021/11/23 00:02:52;;;;;;;5.88;3.25;;;;;;;18.25;36.11;102473.09;4221841;28;20043;-61
2021/11/23 00:04:54;;;;;;;7.45;3.60;;;;;;;18.21;35.93;102468.78;4222810;28;20047;-61
2021/11/23 00:06:56;;;;;;;7.03;3.63;;;;;;;18.13;36.08;102461.13;4221659;28;20121;-60
2021/11/23 00:08:58;;;;;;;5.45;3.38;;;;;;;17.99;35.95;102440.34;4222091;28;20048;-61
2021/11/23 00:11:00;;;;;;;5.32;3.20;;;;;;;18.03;36.03;102455.28;4222155;28;20056;-61
2021/11/23 00:13:02;;;;;;;8.20;3.45;;;;;;;17.98;36.22;102448.41;4224123;28;20043;-61
2021/11/23 00:15:06;;;;;;;6.80;3.40;;;;;;;17.99;35.97;102458.13;4220432;28;20067;-61
2021/11/23 00:17:08;;;;;;;5.50;2.90;;;;;;;17.94;36.17;102463.59;4223313;28;20101;-61
2021/11/23 00:19:10;;;;;;;6.32;3.22;;;;;;;17.85;36.23;102447.97;4222390;28;20048;-61
2021/11/23 00:21:12;;;;;;;;;;;;;;;17.86;36.24;102463.00;4219285;28;20080;-61
2021/11/23 00:23:15;;;;;;;7.07;3.42;;;;;;;17.83;36.59;102457.84;4220550;28;20283;-61
2021/11/23 00:25:17;;;;;;;7.38;3.42;;;;;;;17.77;36.44;102452.75;4223485;28;20042;-61
2021/11/23 00:27:19;;;;;;;;;;;;;;;17.72;36.46;102451.09;4224186;28;20263;-61
2021/11/23 00:29:21;;;;;;;6.57;3.88;;;;;;;17.70;36.67;102446.78;4223804;28;19916;-61
2021/11/23 00:31:23;;;;;;;7.45;3.88;;;;;;;17.67;36.74;102454.88;4223270;28;20315;-61
2021/11/23 00:33:30;;;;;;;7.28;3.97;;;;;;;17.64;36.89;102455.84;4221656;28;20271;-61
2021/11/23 00:35:32;;;;;;;7.20;4.35;;;;;;;17.58;36.61;102448.09;4223506;28;20048;-60
2021/11/23 00:37:34;;;;;;;7.95;4.45;;;;;;;17.57;36.47;102459.69;4223304;28;20060;-61
2021/11/23 00:39:37;;;;;;;7.45;4.60;;;;;;;17.54;37.05;102454.47;4223656;28;20040;-61
2021/11/23 00:41:39;;;;;;;7.05;4.28;;;;;;;17.49;37.01;102451.97;4223363;28;20044;-61
2021/11/23 00:43:41;;;;;;;7.32;4.63;;;;;;;17.47;36.95;102452.97;4223531;28;20055;-61
2021/11/23 00:45:43;;;;;;;8.55;5.00;;;;;;;17.43;36.94;102462.00;4220285;28;20224;-61
2021/11/23 00:47:45;;;;;;;10.02;5.20;;;;;;;17.40;36.78;102455.00;4221466;28;20369;-61
2021/11/23 00:49:47;;;;;;;9.20;5.93;;;;;;;17.33;37.08;102449.00;4218924;28;20355;-61
2021/11/23 00:51:50;;;;;;;9.63;5.85;;;;;;;17.35;36.72;102468.44;4223178;28;20096;-62
2021/11/23 00:53:52;;;;;;;10.18;6.45;;;;;;;17.33;37.31;102462.31;4222195;28;20090;-61
2021/11/23 00:55:54;;;;;;;;;;;;;;;17.28;36.99;102469.59;4220387;28;20237;-61
2021/11/23 00:57:56;;;;;;;9.20;6.30;;;;;;;17.23;37.13;102467.09;4219549;28;20258;-61
2021/11/23 00:59:58;;;;;;;9.32;6.07;;;;;;;17.19;37.23;102457.50;4220878;28;20052;-60
2021/11/23 01:02:00;;;;;;;9.90;6.25;;;;;;;17.18;37.15;102466.41;4221136;28;20040;-60
2021/11/23 01:04:04;;;;;;;10.55;6.43;;;;;;;17.19;37.15;102461.94;4221360;28;20340;-61
2021/11/23 01:06:06;;;;;;;9.52;6.03;;;;;;;17.15;37.13;102462.97;4219015;28;20048;-61
2021/11/23 01:08:08;;;;;;;8.38;5.75;;;;;;;17.09;37.43;102461.41;4221408;28;20078;-61
2021/11/23 01:10:11;;;;;;;9.98;6.13;;;;;;;17.06;37.08;102458.84;4221131;28;20040;-61
2021/11/23 01:12:13;;;;;;;9.63;6.07;;;;;;;16.97;37.25;102451.19;4219792;28;20516;-61
2021/11/23 01:14:16;;;;;;;8.60;5.68;;;;;;;16.97;37.43;102460.03;4220385;28;20336;-62
2021/11/23 01:16:18;;;;;;;9.50;6.43;;;;;;;17.00;37.55;102464.38;4221684;28;20044;-61
2021/11/23 01:18:20;;;;;;;10.18;5.75;;;;;;;16.97;37.55;102465.34;4219857;28;20491;-61
2021/11/23 01:20:23;;;;;;;9.13;5.57;;;;;;;16.99;37.47;102465.31;4222837;28;20043;-62
2021/11/23 01:22:25;;;;;;;9.27;5.90;;;;;;;16.91;37.59;102466.41;4220831;28;20442;-61
2021/11/23 01:24:27;;;;;;;9.00;5.60;;;;;;;16.80;37.70;102444.63;4220840;28;20040;-61
2021/11/23 01:26:29;;;;;;;;;;;;;;;16.89;37.65;102462.03;4221541;28;20044;-61
2021/11/23 01:28:31;;;;;;;7.68;4.80;;;;;;;16.85;37.58;102465.75;4220336;28;19916;-61
2021/11/23 01:30:33;;;;;;;9.32;5.47;;;;;;;16.84;37.59;102461.34;4221023;28;20061;-60
2021/11/23 01:32:36;;;;;;;8.18;4.78;;;;;;;16.80;37.53;102462.38;4217158;28;20383;-60
2021/11/23 01:34:38;;;;;;;8.85;5.10;;;;;;;16.79;37.58;102458.84;4222416;28;20089;-61
2021/11/23 01:36:40;;;;;;;;;;;;;;;16.75;37.74;102459.88;4221937;28;20508;-61
2021/11/23 01:38:42;;;;;;;8.43;4.55;;;;;;;16.68;37.82;102448.56;4222477;28;19916;-60
2021/11/23 01:40:45;;;;;;;8.07;4.63;;;;;;;16.72;37.62;102459.97;4217840;28;20051;-60
2021/11/23 01:42:49;;;;;;;7.20;4.45;;;;;;;16.68;37.72;102461.84;4221989;28;20040;-60
2021/11/23 01:44:52;;;;;;;6.45;4.13;;;;;;;16.67;38.00;102468.09;4221681;28;20048;-61
2021/11/23 01:46:54;;;;;;;8.05;4.57;;;;;;;16.62;37.86;102462.06;4220649;28;20343;-61
2021/11/23 01:48:56;;;;;;;8.90;5.07;;;;;;;16.64;37.65;102470.00;4221984;28;20089;-61
2021/11/23 01:50:59;;;;;;;9.20;6.32;;;;;;;16.58;38.04;102469.25;4220645;28;20104;-61
2021/11/23 01:53:04;;;;;;;10.25;6.25;;;;;;;16.58;37.88;102471.91;4219835;28;20424;-62
2021/11/23 01:55:08;;;;;;;8.30;5.22;;;;;;;16.57;37.78;102469.31;4220445;28;20093;-62
2021/11/23 01:57:11;;;;;;;8.95;6.35;;;;;;;16.54;37.82;102480.06;4220905;28;20065;-62
2021/11/23 01:59:13;;;;;;;9.88;7.05;;;;;;;16.47;37.92;102468.75;4217606;28;20044;-62
2021/11/23 02:01:15;;;;;;;10.73;6.30;;;;;;;16.53;38.22;102480.97;4219710;28;20048;-61
2021/11/23 02:03:18;;;;;;;8.73;6.00;;;;;;;16.49;38.05;102474.88;4219070;28;20219;-62
2021/11/23 02:05:20;;;;;;;8.95;6.03;;;;;;;16.40;38.06;102472.53;4218019;28;20109;-62
2021/11/23 02:07:22;;;;;;;8.70;5.35;;;;;;;16.45;38.04;102475.88;4221540;28;20093;-62
2021/11/23 02:09:24;;;;;;;7.93;5.60;;;;;;;16.42;38.02;102474.19;4221997;28;20213;-61
2021/11/23 02:11:26;;;;;;;;;;;;;;;16.47;38.17;102478.50;4222026;28;20385;-62
2021/11/23 02:13:29;;;;;;;7.70;5.38;;;;;;;16.45;38.22;102482.09;4219644;28;20804;-62
2021/11/23 02:15:32;;;;;;;9.15;5.57;;;;;;;16.45;37.96;102476.78;4219805;28;20328;-59
2021/11/23 02:17:34;;;;;;;8.45;5.68;;;;;;;16.31;38.09;102456.88;4221689;28;20044;-60
2021/11/23 02:19:36;;;;;;;8.80;5.80;;;;;;;16.38;38.10;102464.59;4219538;28;20051;-60
2021/11/23 02:21:39;;;;;;;8.38;5.72;;;;;;;16.41;37.99;102475.13;4220898;28;20235;-60
2021/11/23 02:23:41;;;;;;;9.10;5.55;;;;;;;16.40;38.04;102476.06;4219598;28;20044;-59
2021/11/23 02:25:43;;;;;;;;;;;;;;;16.42;38.03;102482.16;4218518;28;20040;-60
2021/11/23 02:27:47;;;;;;;7.82;5.30;;;;;;;16.38;37.88;102474.34;4221954;28;20122;-59
2021/11/23 02:29:50;;;;;;;8.65;6.15;;;;;;;16.40;38.13;102469.88;4221691;28;20040;-60
2021/11/23 02:31:52;;;;;;;9.68;6.13;;;;;;;16.40;37.71;102477.81;4220629;28;20081;-60
2021/11/23 02:33:54;;;;;;;;;;;;;;;16.36;37.97;102469.09;4222050;28;20090;-60
2021/11/23 02:36:00;;;;;;;9.98;6.95;;;;;;;16.36;37.89;102465.59;4219622;28;20319;-60
2021/11/23 02:38:03;;;;;;;9.40;6.63;;;;;;;16.33;38.06;102476.28;4221780;28;20082;-60
2021/11/23 02:40:07;;;;;;;10.13;6.47;;;;;;;16.31;38.23;102467.50;4220414;28;20232;-60
2021/11/23 02:42:09;;;;;;;8.80;5.90;;;;;;;16.19;38.34;102456.34;4217673;28;20081;-60
2021/11/23 02:44:11;;;;;;;;;;;;;;;16.26;37.79;102468.50;4217366;28;20051;-60
2021/11/23 02:46:13;;;;;;;8.45;5.38;;;;;;;16.17;38.20;102457.31;4219130;28;19920;-60
2021/11/23 02:48:16;;;;;;;7.90;5.38;;;;;;;16.22;38.20;102464.22;4221622;28;20241;-60
2021/11/23 02:50:19;;;;;;;8.43;5.15;;;;;;;16.18;37.88;102467.88;4218301;28;20065;-61
2021/11/23 02:52:21;;;;;;;7.80;5.20;;;;;;;16.17;38.01;102470.59;4218782;28;20043;-60
2021/11/23 02:54:23;;;;;;;;;;;;;;;16.15;37.98;102472.41;4220739;28;20036;-60
2021/11/23 02:56:26;;;;;;;7.53;4.68;;;;;;;16.10;38.18;102468.13;4217187;28;19916;-60
2021/11/23 02:58:31;;;;;;;6.93;4.40;;;;;;;16.10;38.20;102468.13;4220222;28;20082;-60
2021/11/23 03:00:35;;;;;;;7.05;4.32;;;;;;;16.10;38.22;102461.94;4220319;28;20047;-60
2021/11/23 03:02:38;;;;;;;6.95;4.30;;;;;;;16.04;38.20;102463.00;4219350;28;20040;-60
2021/11/23 03:04:40;;;;;;;;;;;;;;;16.03;38.25;102471.88;4218235;28;20044;-60
2021/11/23 03:06:43;;;;;;;6.90;4.13;;;;;;;15.93;38.54;102457.16;4219757;28;20392;-61
2021/11/23 03:08:46;;;;;;;7.07;4.38;;;;;;;15.95;38.32;102463.28;4221433;28;20224;-60
2021/11/23 03:10:49;;;;;;;8.02;4.55;;;;;;;15.94;38.31;102470.38;4216947;28;20069;-60
2021/11/23 03:12:53;;;;;;;7.43;4.38;;;;;;;15.91;38.54;102461.66;4219361;28;20340;-60
2021/11/23 03:14:55;;;;;;;7.38;3.78;;;;;;;15.85;38.38;102453.88;4219446;28;20085;-60
2021/11/23 03:16:57;;;;;;;;;;;;;;;15.85;38.38;102456.53;4220417;28;20232;-60
2021/11/23 03:18:59;;;;;;;7.10;4.25;;;;;;;15.79;38.23;102458.41;4219237;28;19916;-60
2021/11/23 03:21:01;;;;;;;7.15;3.85;;;;;;;15.78;38.61;102455.78;4222748;28;20247;-61
2021/11/23 03:23:05;;;;;;;6.70;4.00;;;;;;;15.72;38.65;102446.22;4220924;28;20055;-61
2021/11/23 03:25:08;;;;;;;9.13;3.95;;;;;;;15.73;38.69;102441.81;4223337;28;20351;-60
2021/11/23 03:27:11;;;;;;;8.60;4.00;;;;;;;15.58;38.88;102422.78;4220961;28;20060;-60
2021/11/23 03:29:13;;;;;;;6.47;3.83;;;;;;;15.69;38.52;102445.44;4223191;28;20377;-61
2021/11/23 03:31:15;;;;;;;6.93;3.80;;;;;;;15.67;38.93;102444.66;4222118;28;20048;-60
2021/11/23 03:33:19;;;;;;;;;;;;;;;15.62;38.83;102447.44;4224617;28;20066;-61
2021/11/23 03:35:24;;;;;;;6.00;3.42;;;;;;;15.58;38.93;102446.66;4223274;28;19931;-60
2021/11/23 03:37:27;;;;;;;6.97;4.10;;;;;;;15.55;38.90;102448.50;4221284;28;20109;-60
2021/11/23 03:39:29;;;;;;;6.95;3.70;;;;;;;15.51;38.75;102444.22;4224137;28;20044;-61
2021/11/23 03:41:31;;;;;;;5.65;3.60;;;;;;;15.40;39.00;102425.97;4221565;28;20490;-60
2021/11/23 03:43:33;;;;;;;6.68;3.55;;;;;;;15.45;38.77;102437.31;4211267;28;20090;-60
2021/11/23 03:45:35;;;;;;;;;;;;;;;15.43;38.88;102436.47;4223088;28;20081;-60
2021/11/23 03:47:38;;;;;;;5.78;3.50;;;;;;;15.38;39.11;102431.28;4222894;28;19927;-60
2021/11/23 03:49:45;;;;;;;6.68;3.65;;;;;;;15.32;39.25;102429.69;4224396;28;20090;-60
2021/11/23 03:51:47;;;;;;;6.47;3.58;;;;;;;15.30;38.95;102436.81;4224254;28;20078;-60
2021/11/23 03:53:49;;;;;;;;;;;;;;;15.28;39.03;102438.63;4224343;28;20097;-61
2021/11/23 03:55:51;;;;;;;7.78;3.72;;;;;;;15.26;39.25;102440.47;4221162;28;19920;-61
2021/11/23 03:57:55;;;;;;;5.63;3.40;;;;;;;15.20;39.05;102437.13;4223469;28;20051;-61
2021/11/23 03:59:57;;;;;;;7.05;3.65;;;;;;;15.14;39.10;102431.06;4224235;28;20067;-60
2021/11/23 04:01:59;;;;;;;;;;;;;;;15.17;39.28;102440.72;4221665;28;20250;-62
2021/11/23 04:04:01;;;;;;;5.93;3.45;;;;;;;15.12;39.08;102430.25;4223116;28;19935;-60
2021/11/23 04:06:05;;;;;;;6.57;3.65;;;;;;;15.10;39.27;102434.69;4220551;28;20381;-61
2021/11/23 04:08:07;;;;;;;5.80;3.47;;;;;;;15.07;39.26;102432.16;4220027;28;20040;-61
2021/11/23 04:10:10;;;;;;;;;;;;;;;15.04;39.36;102434.03;4224623;28;20044;-61
2021/11/23 04:12:13;;;;;;;6.68;3.42;;;;;;;15.00;39.24;102434.09;4221769;28;19922;-61
2021/11/23 04:14:16;;;;;;;6.10;3.40;;;;;;;14.97;39.44;102434.19;4221234;28;20055;-61
2021/11/23 04:16:18;;;;;;;6.53;3.67;;;;;;;14.94;39.41;102439.56;4223350;28;20044;-61
2021/11/23 04:18:20;;;;;;;6.18;3.17;;;;;;;14.92;39.80;102444.03;4222148;28;20036;-61
2021/11/23 04:20:23;;;;;;;6.85;3.58;;;;;;;14.89;39.46;102443.25;4223384;28;20090;-61
2021/11/23 04:22:26;;;;;;;6.70;3.40;;;;;;;14.83;39.39;102441.63;4222503;28;20113;-61
2021/11/23 04:24:28;;;;;;;7.07;3.55;;;;;;;14.78;39.55;102436.44;4223608;28;20066;-60
2021/11/23 04:26:30;;;;;;;5.40;3.13;;;;;;;14.77;39.47;102437.34;4222157;28;20048;-61
2021/11/23 04:28:32;;;;;;;6.25;3.75;;;;;;;14.74;39.66;102441.84;4223465;28;20051;-61
2021/11/23 04:30:34;;;;;;;6.55;3.58;;;;;;;14.69;39.68;102434.91;4221498;28;20243;-61
2021/11/23 04:32:36;;;;;;;;;;;;;;;14.69;39.46;102436.66;4218573;28;20475;-61
2021/11/23 04:34:38;;;;;;;6.13;3.42;;;;;;;14.61;39.91;102434.19;4220336;28;19920;-61
2021/11/23 04:36:40;;;;;;;;;;;;;;;14.62;39.61;102435.06;4221765;28;20352;-61
2021/11/23 04:38:42;;;;;;;5.93;3.22;;;;;;;14.58;39.82;102436.94;4220896;28;20135;-61
2021/11/23 04:40:45;;;;;;;6.30;3.40;;;;;;;14.54;39.65;102430.84;4221517;28;20040;-61
2021/11/23 04:42:47;;;;;;;7.20;3.42;;;;;;;14.51;39.91;102425.59;4223504;28;20340;-61
2021/11/23 04:44:49;;;;;;;;;;;;;;;14.51;39.92;102437.97;4221075;28;20047;-61
2021/11/23 04:46:51;;;;;;;5.82;3.30;;;;;;;14.41;39.71;102420.56;4220413;28;19916;-61
2021/11/23 04:48:54;;;;;;;6.35;3.38;;;;;;;14.39;39.99;102425.91;4218788;28;20205;-61
2021/11/23 04:50:56;;;;;;;6.95;3.28;;;;;;;14.41;40.12;102441.75;4221171;28;20043;-61
2021/11/23 04:52:58;;;;;;;6.05;3.17;;;;;;;14.38;39.89;102440.03;4220055;28;20040;-61
2021/11/23 04:55:00;;;;;;;6.05;3.28;;;;;;;14.36;39.98;102436.56;4222177;28;20044;-61
2021/11/23 04:57:03;;;;;;;6.65;3.50;;;;;;;14.28;40.00;102434.09;4222080;28;20056;-60
2021/11/23 04:59:05;;;;;;;6.05;3.15;;;;;;;14.32;40.05;102442.84;4220690;28;20039;-61
2021/11/23 05:01:07;;;;;;;;;;;;;;;14.29;40.15;102442.91;4208749;28;20101;-60
2021/11/23 05:03:10;;;;;;;6.50;3.30;;;;;;;14.27;40.03;102448.22;4219980;28;19961;-61
2021/11/23 05:05:12;;;;;;;;;;;;;;;14.24;40.20;102439.50;4221545;28;20040;-61
2021/11/23 05:07:15;;;;;;;6.63;3.20;;;;;;;14.15;40.07;102432.66;4221515;28;19915;-61
2021/11/23 05:09:17;;;;;;;6.28;3.20;;;;;;;14.11;40.26;102433.59;4217716;28;20497;-61
2021/11/23 05:11:21;;;;;;;;;;;;;;;14.16;40.41;102442.34;4217244;28;20228;-60
2021/11/23 05:13:23;;;;;;;6.70;3.45;;;;;;;14.11;40.40;102439.78;4219809;28;20104;-60
2021/11/23 05:15:25;;;;;;;;;;;;;;;14.11;40.38;102437.13;4221187;28;20332;-61
2021/11/23 05:17:27;;;;;;;6.00;3.20;;;;;;;14.10;40.52;102445.13;4219314;28;20191;-60
2021/11/23 05:19:29;;;;;;;5.47;3.20;;;;;;;14.07;40.39;102446.06;4220536;28;20886;-61
2021/11/23 05:21:31;;;;;;;;;;;;;;;14.05;40.40;102453.16;4219600;28;20051;-61
2021/11/23 05:23:33;;;;;;;5.47;2.90;;;;;;;13.96;40.66;102440.13;4221182;28;19916;-61
2021/11/23 05:25:35;;;;;;;;;;;;;;;14.00;40.58;102444.47;4219442;28;20043;-61
2021/11/23 05:27:39;;;;;;;6.20;3.47;;;;;;;13.92;40.62;102441.09;4217846;28;20253;-61
2021/11/23 05:29:41;;;;;;;5.78;3.22;;;;;;;13.84;40.89;102423.63;4217029;28;20036;-61
2021/11/23 05:31:43;;;;;;;;;;;;;;;13.94;40.77;102447.22;4218256;28;20048;-60
2021/11/23 05:33:45;;;;;;;5.45;3.15;;;;;;;13.91;40.85;102445.50;4218983;28;19920;-61
2021/11/23 05:35:49;;;;;;;;;;;;;;;13.89;40.93;102449.97;4222895;28;20039;-60
2021/11/23 05:37:52;;;;;;;6.28;3.03;;;;;;;13.82;40.88;102441.28;4221738;28;19922;-61
2021/11/23 05:39:54;;;;;;;5.55;3.10;;;;;;;13.82;40.76;102446.59;4220869;28;20070;-61
2021/11/23 05:41:56;;;;;;;;;;;;;;;13.82;40.99;102456.31;4220044;28;20328;-61
2021/11/23 05:43:58;;;;;;;7.10;3.28;;;;;;;13.79;41.17;102454.59;4219501;28;20323;-61
2021/11/23 05:46:00;;;;;;;;;;;;;;;13.77;40.96;102455.50;4218829;28;20056;-61
2021/11/23 05:48:02;;;;;;;5.82;3.05;;;;;;;13.72;41.12;102461.78;4218697;28;19966;-61
2021/11/23 05:50:04;;;;;;;;;;;;;;;13.73;40.86;102454.69;4221380;28;20100;-60
2021/11/23 05:52:07;;;;;;;7.80;3.60;;;;;;;13.70;41.05;102458.28;4219872;28;19916;-60
2021/11/23 05:54:10;;;;;;;5.47;3.00;;;;;;;13.64;40.96;102455.78;4220015;28;20351;-60
2021/11/23 05:56:12;;;;;;;6.15;3.78;;;;;;;13.67;41.19;102462.75;4216852;28;20040;-60
2021/11/23 05:58:14;;;;;;;;;;;;;;;13.64;41.08;102465.50;4220212;28;20036;-61
2021/11/23 06:00:16;;;;;;;6.03;3.58;;;;;;;13.62;41.13;102460.25;4218131;28;19915;-60
2021/11/23 06:02:19;;;;;;;6.22;3.15;;;;;;;13.53;41.02;102455.97;4219746;28;20063;-60
2021/11/23 06:04:21;;;;;;;7.82;3.33;;;;;;;13.55;41.20;102455.97;4219262;28;20051;-61
2021/11/23 06:06:24;;;;;;;;;;;;;;;13.57;41.23;102470.00;4221354;28;20096;-61
2021/11/23 06:08:26;;;;;;;6.40;3.20;;;;;;;13.50;41.21;102464.00;4219749;28;19920;-61
2021/11/23 06:10:28;;;;;;;7.68;3.90;;;;;;;13.49;41.28;102478.09;4219147;28;20128;-61
2021/11/23 06:12:31;;;;;;;6.40;3.20;;;;;;;13.50;41.35;102476.31;4219322;28;20324;-61
2021/11/23 06:14:33;;;;;;;5.93;3.40;;;;;;;13.46;41.52;102474.66;4216808;28;20036;-61
2021/11/23 06:16:37;;;;;;;;;;;;;;;13.45;41.11;102471.16;4217454;28;20048;-60
2021/11/23 06:18:39;;;;;;;5.88;3.10;;;;;;;13.42;41.38;102479.13;4219286;28;19927;-61
2021/11/23 06:20:46;;;;;;;7.78;3.55;;;;;;;13.20;41.28;102441.63;4220123;28;20105;-60
2021/11/23 06:22:48;;;;;;;6.97;3.63;;;;;;;13.35;41.15;102473.03;4218984;28;20044;-61
2021/11/23 06:24:50;;;;;;;6.55;3.53;;;;;;;13.30;41.20;102463.47;4219984;28;20560;-60
2021/11/23 06:26:53;;;;;;;7.57;3.45;;;;;;;13.30;41.41;102466.13;4220577;28;20044;-61
2021/11/23 06:28:55;;;;;;;5.18;3.20;;;;;;;13.28;40.99;102463.50;4217379;28;20044;-61
2021/11/23 06:30:57;;;;;;;6.88;3.33;;;;;;;13.22;41.12;102459.19;4219547;28;20332;-61
2021/11/23 06:32:59;;;;;;;;;;;;;;;13.25;41.30;102476.78;4221552;28;20085;-61
2021/11/23 06:35:02;;;;;;;8.57;3.78;;;;;;;13.22;41.10;102466.25;4221363;28;19923;-61
2021/11/23 06:37:04;;;;;;;6.07;3.45;;;;;;;13.19;41.27;102475.09;4219188;28;20062;-61
2021/11/23 06:39:07;;;;;;;;;;;;;;;13.18;41.32;102478.63;4221354;28;20039;-61
2021/11/23 06:41:09;;;;;;;7.20;3.65;;;;;;;13.15;41.52;102477.81;4221340;28;19916;-61
2021/11/23 06:43:11;;;;;;;7.78;3.30;;;;;;;13.13;41.53;102479.63;4215155;28;20438;-61
2021/11/23 06:45:13;;;;;;;;;;;;;;;13.11;41.58;102490.25;4216442;28;20192;-61
2021/11/23 06:47:15;;;;;;;7.90;3.80;;;;;;;13.03;41.54;102478.94;4217908;28;19916;-61
2021/11/23 06:49:18;;;;;;;8.38;3.50;;;;;;;13.02;41.30;102482.47;4217771;28;20328;-61
2021/11/23 06:51:20;;;;;;;8.63;3.90;;;;;;;13.01;41.41;102492.16;4219237;28;20491;-61
2021/11/23 06:53:22;;;;;;;;;;;;;;;13.03;41.35;102503.56;4219934;28;20081;-61
2021/11/23 06:55:24;;;;;;;7.32;3.35;;;;;;;12.97;41.59;102495.75;4214820;28;19977;-61
2021/11/23 06:57:26;;;;;;;7.40;3.72;;;;;;;12.99;41.60;102504.53;4217967;28;20511;-61
2021/11/23 06:59:28;;;;;;;;;;;;;;;12.98;41.51;102505.41;4219989;28;20044;-61
2021/11/23 07:01:30;;;;;;;8.50;3.50;;;;;;;12.95;41.53;102508.09;4216761;28;19920;-61
2021/11/23 07:03:33;;;;;;;7.15;3.58;;;;;;;12.87;41.65;102499.47;4218255;28;20048;-61
2021/11/23 07:05:35;;;;;;;;;;;;;;;12.92;41.74;102506.38;4219036;28;20267;-60
2021/11/23 07:07:57;;;;;;;6.18;3.40;;;;;;;12.89;41.63;102506.44;4218626;28;19916;-61
2021/11/23 07:10:01;;;;;;;;;;;;;;;12.88;41.87;102503.81;4213503;28;20040;-61
2021/11/23 07:12:20;;;;;;;7.20;3.55;;;;;;;12.80;41.72;102500.44;4220251;28;20156;-62
2021/11/23 07:14:22;;;;;;;7.60;3.45;;;;;;;12.86;41.90;102516.19;4214761;28;20040;-61
2021/11/23 07:16:24;;;;;;;6.78;3.35;;;;;;;12.81;41.81;102512.72;4217838;28;20074;-61
2021/11/23 07:18:26;;;;;;;6.00;3.30;;;;;;;12.82;41.72;102509.19;4216188;28;20051;-61
2021/11/23 07:20:28;;;;;;;;;;;;;;;12.80;41.96;102516.28;4217588;28;20220;-61
2021/11/23 07:22:31;;;;;;;7.40;3.55;;;;;;;12.75;41.71;102509.28;4216475;28;19973;-61
2021/11/23 07:24:33;;;;;;;7.90;3.40;;;;;;;12.60;41.94;102484.03;4216760;28;20055;-61
2021/11/23 07:26:37;;;;;;;6.18;3.05;;;;;;;12.73;41.85;102518.16;4206829;28;20082;-60
2021/11/23 07:28:39;;;;;;;6.18;3.30;;;;;;;12.72;41.93;102522.56;4219613;28;20135;-62
2021/11/23 07:30:41;;;;;;;;;;;;;;;12.72;42.02;102532.22;4214844;28;20119;-61
2021/11/23 07:32:44;;;;;;;8.07;3.58;;;;;;;12.72;41.94;102529.59;4214099;28;19923;-61
2021/11/23 07:34:46;;;;;;;6.80;3.55;;;;;;;12.68;41.98;102530.56;4214052;28;20243;-61
2021/11/23 07:36:48;;;;;;;5.85;3.17;;;;;;;12.62;41.88;102534.16;4212857;28;20060;-61
2021/11/23 07:38:53;;;;;;;6.72;3.17;;;;;;;12.68;41.61;102547.25;4219341;28;20094;-62
2021/11/23 07:40:56;;;;;;;6.95;3.05;;;;;;;12.61;41.65;102537.69;4214639;28;20047;-61
2021/11/23 07:43:00;;;;;;;7.82;4.20;;;;;;;12.60;41.35;102535.94;4213097;28;20511;-61
2021/11/23 07:45:18;;;;;;;8.75;4.03;;;;;;;12.61;41.40;102546.47;4212975;28;20052;-62
2021/11/23 07:47:21;;;;;;;7.35;4.00;;;;;;;12.64;41.41;102564.03;4213766;28;20059;-63
2021/11/23 07:49:23;;;;;;;6.88;3.80;;;;;;;12.60;41.51;102559.69;4209921;28;20192;-62
2021/11/23 07:51:25;;;;;;;8.88;4.40;;;;;;;12.58;41.18;102551.78;4215966;28;20488;-62
2021/11/23 07:53:27;;;;;;;;;;;;;;;12.62;41.16;102557.91;4216653;28;20043;-61
2021/11/23 07:55:30;;;;;;;8.35;4.40;;;;;;;12.61;41.01;102562.31;4218823;28;19992;-62
2021/11/23 07:57:33;;;;;;;;;;;;;;;12.61;40.73;102564.06;4221103;28;20373;-61
2021/11/23 07:59:35;;;;;;;9.18;4.43;;;;;;;12.61;40.68;102558.78;4218456;28;19916;-61
2021/11/23 08:01:38;;;;;;;;;;;;;;;12.61;40.72;102564.97;4216564;28;20055;-59
2021/11/23 08:03:41;;;;;;;8.15;4.25;;;;;;;12.57;40.57;102560.59;4212053;28;19920;-61
2021/11/23 08:05:43;;;;;;;8.60;4.22;;;;;;;12.59;40.50;102576.44;4219882;28;20044;-61
2021/11/23 08:07:45;;;;;;;;;;;;;;;12.62;40.50;102576.38;4219559;28;20078;-62
2021/11/23 08:09:47;;;;;;;9.52;3.83;;;;;;;12.61;40.54;102585.19;4223590;28;19916;-60
2021/11/23 08:11:49;;;;;;;8.95;4.10;;;;;;;12.62;40.80;102584.28;4221144;28;20043;-60
2021/11/23 08:13:51;;;;;;;11.98;3.90;;;;;;;12.50;40.80;102571.28;4205097;28;20135;-60
2021/11/23 08:15:53;;;;;;;;;;;;;;;12.62;40.86;102589.56;4214370;28;20036;-59
2021/11/23 08:17:55;;;;;;;8.15;4.38;;;;;;;12.61;40.64;102594.00;4223358;28;19988;-59
2021/11/23 08:19:58;;;;;;;7.95;4.28;;;;;;;12.55;40.54;102586.16;4222285;28;20095;-58
2021/11/23 08:22:00;;;;;;;13.02;4.45;;;;;;;12.55;40.54;102575.59;4223404;28;20062;-59
2021/11/23 08:24:03;;;;;;;10.10;4.32;;;;;;;12.59;40.34;102589.63;4221525;28;20051;-59
2021/11/23 08:26:06;;;;;;;9.63;4.65;;;;;;;12.62;40.19;102584.28;4223132;28;20266;-59
2021/11/23 08:28:08;;;;;;;9.32;4.68;;;;;;;12.46;40.12;102573.09;4223294;28;20040;-60
2021/11/23 08:30:11;;;;;;;10.18;4.28;;;;;;;12.58;40.25;102582.59;4220923;28;20497;-59
2021/11/23 08:32:14;;;;;;;10.02;4.30;;;;;;;12.62;40.18;102594.84;4220702;28;20036;-61
2021/11/23 08:34:17;;;;;;;9.95;4.32;;;;;;;12.47;40.24;102561.63;4221311;28;20070;-58
2021/11/23 08:36:19;;;;;;;6.97;3.70;;;;;;;12.49;40.54;102564.25;4219497;28;20056;-59
2021/11/23 08:38:21;;;;;;;;;;;;;;;12.61;40.50;102590.47;4211939;28;20040;-59
2021/11/23 08:40:23;;;;;;;10.48;3.97;;;;;;;12.60;40.74;102588.72;4222349;28;19916;-59
2021/11/23 08:42:27;;;;;;;9.30;4.30;;;;;;;12.58;40.56;102580.81;4223027;28;20254;-58
2021/11/23 08:44:29;;;;;;;11.00;4.47;;;;;;;12.53;40.27;102585.31;4221622;28;20040;-59
2021/11/23 08:46:31;;;;;;;8.82;3.90;;;;;;;12.57;40.28;102581.72;4219070;28;20549;-60
2021/11/23 08:48:35;;;;;;;;;;;;;;;12.58;40.00;102594.03;4221239;28;20044;-59
2021/11/23 08:50:37;;;;;;;8.23;3.70;;;;;;;12.58;40.11;102591.38;4213854;28;19920;-60
2021/11/23 08:52:39;;;;;;;8.10;3.53;;;;;;;12.56;40.10;102577.31;4217829;28;20040;-59
2021/11/23 08:54:42;;;;;;;9.23;3.80;;;;;;;12.57;39.85;102592.28;4221824;28;20400;-59
2021/11/23 08:56:53;;;;;;;8.02;4.20;;;;;;;12.57;39.61;102583.50;4216291;28;20040;-59
2021/11/23 08:58:57;;;;;;;12.07;4.10;;;;;;;12.57;39.62;102587.00;4213843;28;20335;-59
2021/11/23 09:00:59;;;;;;;8.45;3.63;;;;;;;12.57;39.69;102591.41;4216995;28;20044;-59
2021/11/23 09:03:02;;;;;;;8.43;3.80;;;;;;;12.57;39.56;102583.50;4215816;28;20040;-59
2021/11/23 09:05:11;;;;;;;8.93;3.45;;;;;;;12.54;39.22;102571.22;4229206;28;20055;-59
2021/11/23 09:07:17;;;;;;;6.82;3.30;;;;;;;12.57;39.42;102580.84;4207073;28;20097;-59
2021/11/23 09:09:23;;;;;;;8.02;3.42;;;;;;;12.42;39.33;102564.34;4215139;28;20190;-59
2021/11/23 09:11:26;;;;;;;8.23;3.83;;;;;;;12.51;39.38;102576.53;4208793;28;20478;-60
2021/11/23 09:13:28;;;;;;;7.80;3.13;;;;;;;12.52;39.38;102577.41;4216463;28;20130;-58
2021/11/23 09:15:30;;;;;;;6.45;2.97;;;;;;;12.51;39.11;102573.88;4219263;28;20036;-59
2021/11/23 09:17:33;;;;;;;;;;;;;;;12.56;39.16;102585.25;4212458;28;20105;-62
2021/11/23 09:19:36;;;;;;;7.03;2.70;;;;;;;12.55;39.06;102570.34;4214391;28;20353;-58
2021/11/23 09:21:38;;;;;;;6.55;2.60;;;;;;;12.55;38.93;102582.63;4209723;28;20040;-61
2021/11/23 09:23:40;;;;;;;9.30;2.88;;;;;;;12.57;38.83;102587.00;4219266;28;20048;-59
2021/11/23 09:25:42;;;;;;;;;;;;;;;12.56;38.79;102593.16;4215464;28;20041;-58
2021/11/23 09:27:45;;;;;;;7.50;3.00;;;;;;;12.48;38.80;102583.59;4210038;28;20218;-59
2021/11/23 09:29:47;;;;;;;8.20;2.90;;;;;;;12.55;38.84;102593.19;4212008;28;20052;-59
2021/11/23 09:31:50;;;;;;;;;;;;;;;12.55;38.66;102596.72;4208558;28;20068;-59
2021/11/23 09:33:52;;;;;;;6.38;2.63;;;;;;;12.50;38.58;102587.13;4215587;28;19915;-59
2021/11/23 09:35:54;;;;;;;5.93;2.10;;;;;;;12.49;38.64;102588.00;4214278;28;20029;-57
2021/11/23 09:37:57;;;;;;;6.95;2.67;;;;;;;12.53;38.74;102592.38;4208806;28;20048;-60
2021/11/23 09:39:59;;;;;;;6.97;2.55;;;;;;;12.50;38.91;102587.97;4213013;28;20044;-60